sensor_id;sensor_type;location;lat;lon;timestamp;pressure;altitude;pressure_sealevel;temperature;humidity
46886;BME280;32622;48.202;11.326;2023-10-31T00:00:52;1003.41;;;9.71;45.47
46886;BME280;32622;48.202;11.326;2023-10-31T00:02:54;1003.35;;;9.71;44.77
46886;BME280;32622;48.202;11.326;2023-10-31T00:04:56;1003.57;;;9.09;45.87
46886;BME280;32622;48.202;11.326;2023-10-31T00:06:59;1003.56;;;9.15;45.50
46886;BME280;32622;48.202;11.326;2023-10-31T00:09:01;1003.43;;;9.50;44.90
46886;BME280;32622;48.202;11.326;2023-10-31T00:11:03;1003.42;;;9.67;43.47
46886;BME280;32622;48.202;11.326;2023-10-31T00:13:06;1003.63;;;8.99;45.04
46886;BME280;32622;48.202;11.326;2023-10-31T00:15:08;1003.48;;;9.66;44.63
46886;BME280;32622;48.202;11.326;2023-10-31T00:17:10;1003.44;;;9.88;43.98
46886;BME280;32622;48.202;11.326;2023-10-31T00:19:12;1003.51;;;9.50;44.09
46886;BME280;32622;48.202;11.326;2023-10-31T00:21:14;1003.50;;;9.45;44.01
46886;BME280;32622;48.202;11.326;2023-10-31T00:23:17;1003.53;;;9.45;42.91
46886;BME280;32622;48.202;11.326;2023-10-31T00:25:19;1003.30;;;10.48;42.63
46886;BME280;32622;48.202;11.326;2023-10-31T00:27:21;1003.46;;;9.99;42.18
46886;BME280;32622;48.202;11.326;2023-10-31T00:29:23;1003.56;;;9.89;42.62
46886;BME280;32622;48.202;11.326;2023-10-31T00:31:25;1003.64;;;9.80;42.06
46886;BME280;32622;48.202;11.326;2023-10-31T00:33:27;1003.61;;;9.98;41.88
46886;BME280;32622;48.202;11.326;2023-10-31T00:35:30;1003.61;;;10.20;42.26
46886;BME280;32622;48.202;11.326;2023-10-31T00:37:32;1003.59;;;10.27;42.03
46886;BME280;32622;48.202;11.326;2023-10-31T00:39:34;1003.74;;;9.64;42.51
46886;BME280;32622;48.202;11.326;2023-10-31T00:41:36;1003.77;;;9.46;42.36
46886;BME280;32622;48.202;11.326;2023-10-31T00:43:38;1003.67;;;9.89;42.61
46886;BME280;32622;48.202;11.326;2023-10-31T00:45:40;1003.60;;;10.24;41.84
46886;BME280;32622;48.202;11.326;2023-10-31T00:47:42;1003.72;;;9.85;41.58
46886;BME280;32622;48.202;11.326;2023-10-31T00:49:44;1003.71;;;9.83;41.65
46886;BME280;32622;48.202;11.326;2023-10-31T00:51:46;1003.65;;;10.02;41.54
46886;BME280;32622;48.202;11.326;2023-10-31T00:53:48;1003.60;;;10.18;41.57
46886;BME280;32622;48.202;11.326;2023-10-31T00:55:50;1003.72;;;9.78;41.65
46886;BME280;32622;48.202;11.326;2023-10-31T00:57:53;1003.70;;;9.95;41.65
46886;BME280;32622;48.202;11.326;2023-10-31T00:59:55;1003.56;;;10.60;41.23
46886;BME280;32622;48.202;11.326;2023-10-31T01:01:57;1003.71;;;9.87;42.00
46886;BME280;32622;48.202;11.326;2023-10-31T01:03:59;1003.75;;;9.69;41.65
46886;BME280;32622;48.202;11.326;2023-10-31T01:06:01;1003.62;;;10.05;41.59
46886;BME280;32622;48.202;11.326;2023-10-31T01:08:03;1003.81;;;9.49;42.55
46886;BME280;32622;48.202;11.326;2023-10-31T01:10:06;1003.92;;;9.26;42.87
46886;BME280;32622;48.202;11.326;2023-10-31T01:12:08;1003.73;;;10.11;41.84
46886;BME280;32622;48.202;11.326;2023-10-31T01:14:11;1003.86;;;9.79;42.40
46886;BME280;32622;48.202;11.326;2023-10-31T01:16:13;1004.01;;;9.18;43.22
46886;BME280;32622;48.202;11.326;2023-10-31T01:18:15;1004.04;;;9.26;43.16
46886;BME280;32622;48.202;11.326;2023-10-31T01:20:17;1004.20;;;8.57;43.51
46886;BME280;32622;48.202;11.326;2023-10-31T01:22:20;1004.10;;;9.28;42.81
46886;BME280;32622;48.202;11.326;2023-10-31T01:24:22;1004.02;;;9.56;42.80
46886;BME280;32622;48.202;11.326;2023-10-31T01:26:24;1004.15;;;9.15;42.60
46886;BME280;32622;48.202;11.326;2023-10-31T01:28:26;1004.25;;;8.39;43.97
46886;BME280;32622;48.202;11.326;2023-10-31T01:30:28;1004.00;;;9.40;42.78
46886;BME280;32622;48.202;11.326;2023-10-31T01:32:30;1003.94;;;9.60;42.41
46886;BME280;32622;48.202;11.326;2023-10-31T01:34:32;1003.98;;;9.38;42.54
46886;BME280;32622;48.202;11.326;2023-10-31T01:36:34;1003.94;;;9.56;42.18
46886;BME280;32622;48.202;11.326;2023-10-31T01:38:36;1003.86;;;9.76;41.92
46886;BME280;32622;48.202;11.326;2023-10-31T01:40:39;1003.99;;;9.49;42.36
46886;BME280;32622;48.202;11.326;2023-10-31T01:42:41;1003.92;;;9.69;42.13
46886;BME280;32622;48.202;11.326;2023-10-31T01:44:43;1003.96;;;9.51;42.53
46886;BME280;32622;48.202;11.326;2023-10-31T01:46:45;1003.83;;;10.00;41.61
46886;BME280;32622;48.202;11.326;2023-10-31T01:48:47;1003.89;;;9.78;41.67
46886;BME280;32622;48.202;11.326;2023-10-31T01:50:50;1003.95;;;9.59;41.46
46886;BME280;32622;48.202;11.326;2023-10-31T01:52:52;1003.90;;;9.84;41.73
46886;BME280;32622;48.202;11.326;2023-10-31T01:54:54;1003.99;;;9.46;41.37
46886;BME280;32622;48.202;11.326;2023-10-31T01:56:57;1003.90;;;9.96;41.67
46886;BME280;32622;48.202;11.326;2023-10-31T01:58:59;1003.83;;;10.23;41.26
46886;BME280;32622;48.202;11.326;2023-10-31T02:01:02;1003.87;;;9.82;40.89
46886;BME280;32622;48.202;11.326;2023-10-31T02:03:05;1003.89;;;9.65;41.15
46886;BME280;32622;48.202;11.326;2023-10-31T02:05:08;1003.83;;;9.77;41.47
46886;BME280;32622;48.202;11.326;2023-10-31T02:07:10;1003.92;;;9.55;41.29
46886;BME280;32622;48.202;11.326;2023-10-31T02:09:12;1003.96;;;9.65;41.14
46886;BME280;32622;48.202;11.326;2023-10-31T02:11:14;1004.00;;;9.77;41.50
46886;BME280;32622;48.202;11.326;2023-10-31T02:13:18;1003.82;;;10.70;41.09
46886;BME280;32622;48.202;11.326;2023-10-31T02:15:20;1004.11;;;9.65;41.69
46886;BME280;32622;48.202;11.326;2023-10-31T02:17:22;1004.17;;;9.60;41.53
46886;BME280;32622;48.202;11.326;2023-10-31T02:19:24;1004.37;;;9.03;42.88
46886;BME280;32622;48.202;11.326;2023-10-31T02:21:27;1004.26;;;9.57;42.53
46886;BME280;32622;48.202;11.326;2023-10-31T02:23:31;1004.43;;;9.00;43.39
46886;BME280;32622;48.202;11.326;2023-10-31T02:25:34;1004.45;;;9.12;43.51
46886;BME280;32622;48.202;11.326;2023-10-31T02:27:36;1004.40;;;9.13;43.76
46886;BME280;32622;48.202;11.326;2023-10-31T02:29:39;1004.37;;;9.36;43.48
46886;BME280;32622;48.202;11.326;2023-10-31T02:31:41;1004.45;;;8.99;43.90
46886;BME280;32622;48.202;11.326;2023-10-31T02:33:43;1004.38;;;9.48;43.07
46886;BME280;32622;48.202;11.326;2023-10-31T02:35:45;1004.69;;;8.25;44.08
46886;BME280;32622;48.202;11.326;2023-10-31T02:37:48;1004.60;;;9.11;43.91
46886;BME280;32622;48.202;11.326;2023-10-31T02:39:50;1004.67;;;8.72;44.44
46886;BME280;32622;48.202;11.326;2023-10-31T02:41:52;1004.58;;;8.71;44.58
46886;BME280;32622;48.202;11.326;2023-10-31T02:43:54;1004.51;;;9.10;43.33
46886;BME280;32622;48.202;11.326;2023-10-31T02:45:56;1004.65;;;8.78;44.56
46886;BME280;32622;48.202;11.326;2023-10-31T02:47:58;1004.73;;;8.42;44.60
46886;BME280;32622;48.202;11.326;2023-10-31T02:50:00;1004.68;;;8.94;43.61
46886;BME280;32622;48.202;11.326;2023-10-31T02:52:03;1005.03;;;7.81;45.17
46886;BME280;32622;48.202;11.326;2023-10-31T02:54:06;1004.78;;;8.91;44.25
46886;BME280;32622;48.202;11.326;2023-10-31T02:56:08;1004.67;;;9.07;43.91
46886;BME280;32622;48.202;11.326;2023-10-31T02:58:10;1004.56;;;9.66;43.03
46886;BME280;32622;48.202;11.326;2023-10-31T03:00:14;1004.66;;;9.20;43.08
46886;BME280;32622;48.202;11.326;2023-10-31T03:02:16;1004.50;;;9.76;42.41
46886;BME280;32622;48.202;11.326;2023-10-31T03:04:18;1004.63;;;8.86;43.47
46886;BME280;32622;48.202;11.326;2023-10-31T03:06:21;1004.91;;;7.77;45.45
46886;BME280;32622;48.202;11.326;2023-10-31T03:08:23;1004.64;;;8.78;43.24
46886;BME280;32622;48.202;11.326;2023-10-31T03:10:26;1004.71;;;8.70;44.04
46886;BME280;32622;48.202;11.326;2023-10-31T03:12:28;1004.51;;;9.66;43.24
46886;BME280;32622;48.202;11.326;2023-10-31T03:14:30;1004.51;;;9.47;43.20
46886;BME280;32622;48.202;11.326;2023-10-31T03:16:32;1004.69;;;9.12;43.78
46886;BME280;32622;48.202;11.326;2023-10-31T03:18:35;1004.84;;;8.86;43.28
46886;BME280;32622;48.202;11.326;2023-10-31T03:20:37;1004.78;;;9.38;43.21
46886;BME280;32622;48.202;11.326;2023-10-31T03:22:39;1004.77;;;9.28;43.21
46886;BME280;32622;48.202;11.326;2023-10-31T03:24:41;1004.90;;;8.66;43.60
46886;BME280;32622;48.202;11.326;2023-10-31T03:26:43;1004.95;;;8.56;44.08
46886;BME280;32622;48.202;11.326;2023-10-31T03:28:45;1004.85;;;9.10;43.27
46886;BME280;32622;48.202;11.326;2023-10-31T03:30:48;1004.90;;;8.85;42.75
46886;BME280;32622;48.202;11.326;2023-10-31T03:32:51;1004.71;;;9.52;42.70
46886;BME280;32622;48.202;11.326;2023-10-31T03:34:53;1004.83;;;8.71;43.19
46886;BME280;32622;48.202;11.326;2023-10-31T03:36:55;1004.75;;;8.89;42.67
46886;BME280;32622;48.202;11.326;2023-10-31T03:38:57;1004.64;;;9.00;42.34
46886;BME280;32622;48.202;11.326;2023-10-31T03:40:59;1004.55;;;9.76;42.16
46886;BME280;32622;48.202;11.326;2023-10-31T03:43:01;1004.75;;;8.94;42.95
46886;BME280;32622;48.202;11.326;2023-10-31T03:45:04;1004.87;;;8.63;42.97
46886;BME280;32622;48.202;11.326;2023-10-31T03:47:06;1004.71;;;9.30;42.53
46886;BME280;32622;48.202;11.326;2023-10-31T03:49:09;1004.76;;;9.12;42.03
46886;BME280;32622;48.202;11.326;2023-10-31T03:51:11;1004.89;;;8.45;43.21
46886;BME280;32622;48.202;11.326;2023-10-31T03:53:13;1004.81;;;8.90;42.12
46886;BME280;32622;48.202;11.326;2023-10-31T03:55:15;1004.76;;;8.84;42.53
46886;BME280;32622;48.202;11.326;2023-10-31T03:57:18;1004.72;;;9.24;41.99
46886;BME280;32622;48.202;11.326;2023-10-31T03:59:20;1004.79;;;9.03;42.82
46886;BME280;32622;48.202;11.326;2023-10-31T04:01:22;1004.81;;;9.01;42.36
46886;BME280;32622;48.202;11.326;2023-10-31T04:03:24;1004.58;;;9.63;41.84
46886;BME280;32622;48.202;11.326;2023-10-31T04:05:26;1004.86;;;8.68;41.86
46886;BME280;32622;48.202;11.326;2023-10-31T04:07:29;1005.03;;;8.64;42.26
46886;BME280;32622;48.202;11.326;2023-10-31T04:09:31;1004.93;;;9.21;41.54
46886;BME280;32622;48.202;11.326;2023-10-31T04:11:33;1005.09;;;8.47;42.57
46886;BME280;32622;48.202;11.326;2023-10-31T04:13:35;1004.97;;;9.08;41.55
46886;BME280;32622;48.202;11.326;2023-10-31T04:15:37;1004.91;;;9.53;41.08
46886;BME280;32622;48.202;11.326;2023-10-31T04:17:39;1004.91;;;9.46;40.42
46886;BME280;32622;48.202;11.326;2023-10-31T04:19:41;1004.91;;;9.61;40.67
46886;BME280;32622;48.202;11.326;2023-10-31T04:21:43;1004.97;;;9.28;41.17
46886;BME280;32622;48.202;11.326;2023-10-31T04:23:45;1005.02;;;9.34;40.84
46886;BME280;32622;48.202;11.326;2023-10-31T04:25:47;1005.26;;;8.47;41.55
46886;BME280;32622;48.202;11.326;2023-10-31T04:27:49;1005.35;;;8.35;42.20
46886;BME280;32622;48.202;11.326;2023-10-31T04:29:52;1005.33;;;8.61;41.84
46886;BME280;32622;48.202;11.326;2023-10-31T04:31:54;1005.41;;;8.48;42.73
46886;BME280;32622;48.202;11.326;2023-10-31T04:33:56;1005.25;;;9.03;41.96
46886;BME280;32622;48.202;11.326;2023-10-31T04:35:58;1005.32;;;8.79;41.76
46886;BME280;32622;48.202;11.326;2023-10-31T04:38:00;1005.26;;;9.11;41.10
46886;BME280;32622;48.202;11.326;2023-10-31T04:40:02;1005.45;;;8.40;42.25
46886;BME280;32622;48.202;11.326;2023-10-31T04:42:05;1005.44;;;8.62;42.75
46886;BME280;32622;48.202;11.326;2023-10-31T04:44:07;1005.29;;;9.02;42.25
46886;BME280;32622;48.202;11.326;2023-10-31T04:46:09;1005.30;;;8.94;41.64
46886;BME280;32622;48.202;11.326;2023-10-31T04:48:12;1005.11;;;9.55;41.17
46886;BME280;32622;48.202;11.326;2023-10-31T04:50:14;1005.20;;;8.94;41.37
46886;BME280;32622;48.202;11.326;2023-10-31T04:52:16;1005.18;;;8.98;41.05
46886;BME280;32622;48.202;11.326;2023-10-31T04:54:19;1005.03;;;9.45;41.04
46886;BME280;32622;48.202;11.326;2023-10-31T04:56:21;1005.11;;;8.98;41.58
46886;BME280;32622;48.202;11.326;2023-10-31T04:58:23;1005.12;;;9.01;41.30
46886;BME280;32622;48.202;11.326;2023-10-31T05:00:25;1005.27;;;8.25;41.54
46886;BME280;32622;48.202;11.326;2023-10-31T05:02:27;1005.35;;;8.15;42.54
46886;BME280;32622;48.202;11.326;2023-10-31T05:04:29;1005.39;;;8.12;42.77
46886;BME280;32622;48.202;11.326;2023-10-31T05:06:31;1005.36;;;8.20;42.64
46886;BME280;32622;48.202;11.326;2023-10-31T05:08:33;1005.37;;;8.36;42.35
46886;BME280;32622;48.202;11.326;2023-10-31T05:10:35;1005.24;;;9.18;41.53
46886;BME280;32622;48.202;11.326;2023-10-31T05:12:37;1005.23;;;9.51;40.89
46886;BME280;32622;48.202;11.326;2023-10-31T05:14:40;1005.36;;;9.17;40.82
46886;BME280;32622;48.202;11.326;2023-10-31T05:16:42;1005.30;;;9.52;40.26
46886;BME280;32622;48.202;11.326;2023-10-31T05:18:45;1005.35;;;9.40;39.89
46886;BME280;32622;48.202;11.326;2023-10-31T05:20:47;1005.26;;;9.81;39.89
46886;BME280;32622;48.202;11.326;2023-10-31T05:22:49;1005.43;;;9.17;40.51
46886;BME280;32622;48.202;11.326;2023-10-31T05:24:51;1005.42;;;9.03;40.94
46886;BME280;32622;48.202;11.326;2023-10-31T05:26:53;1005.51;;;8.84;40.85
46886;BME280;32622;48.202;11.326;2023-10-31T05:28:56;1005.46;;;9.37;40.52
46886;BME280;32622;48.202;11.326;2023-10-31T05:30:58;1005.57;;;8.95;41.36
46886;BME280;32622;48.202;11.326;2023-10-31T05:33:00;1005.66;;;8.86;41.31
46886;BME280;32622;48.202;11.326;2023-10-31T05:35:02;1006.11;;;7.24;44.48
46886;BME280;32622;48.202;11.326;2023-10-31T05:37:05;1005.70;;;9.07;41.82
46886;BME280;32622;48.202;11.326;2023-10-31T05:39:07;1005.69;;;9.03;41.42
46886;BME280;32622;48.202;11.326;2023-10-31T05:41:09;1005.69;;;9.30;41.15
46886;BME280;32622;48.202;11.326;2023-10-31T05:43:11;1005.79;;;8.97;40.77
46886;BME280;32622;48.202;11.326;2023-10-31T05:45:14;1006.02;;;8.34;42.04
46886;BME280;32622;48.202;11.326;2023-10-31T05:47:16;1005.83;;;9.05;40.93
46886;BME280;32622;48.202;11.326;2023-10-31T05:49:18;1005.77;;;9.39;40.26
46886;BME280;32622;48.202;11.326;2023-10-31T05:51:20;1005.99;;;8.73;40.92
46886;BME280;32622;48.202;11.326;2023-10-31T05:53:22;1005.99;;;9.04;40.80
46886;BME280;32622;48.202;11.326;2023-10-31T05:55:24;1006.41;;;7.30;42.74
46886;BME280;32622;48.202;11.326;2023-10-31T05:57:26;1006.41;;;7.65;43.54
46886;BME280;32622;48.202;11.326;2023-10-31T05:59:28;1006.36;;;7.87;43.29
46886;BME280;32622;48.202;11.326;2023-10-31T06:01:30;1006.25;;;8.58;42.54
46886;BME280;32622;48.202;11.326;2023-10-31T06:03:32;1006.46;;;7.76;42.76
46886;BME280;32622;48.202;11.326;2023-10-31T06:05:35;1006.38;;;8.12;43.74
46886;BME280;32622;48.202;11.326;2023-10-31T06:07:37;1006.29;;;8.50;41.93
46886;BME280;32622;48.202;11.326;2023-10-31T06:09:39;1006.32;;;8.41;42.11
46886;BME280;32622;48.202;11.326;2023-10-31T06:11:42;1006.44;;;8.08;42.35
46886;BME280;32622;48.202;11.326;2023-10-31T06:13:44;1006.42;;;8.45;41.87
46886;BME280;32622;48.202;11.326;2023-10-31T06:15:46;1006.47;;;8.34;42.41
46886;BME280;32622;48.202;11.326;2023-10-31T06:17:48;1006.35;;;8.89;41.57
46886;BME280;32622;48.202;11.326;2023-10-31T06:19:50;1006.53;;;8.15;42.64
46886;BME280;32622;48.202;11.326;2023-10-31T06:21:52;1006.46;;;8.54;42.30
46886;BME280;32622;48.202;11.326;2023-10-31T06:23:54;1006.50;;;8.66;41.69
46886;BME280;32622;48.202;11.326;2023-10-31T06:25:56;1006.43;;;8.74;41.51
46886;BME280;32622;48.202;11.326;2023-10-31T06:27:59;1006.32;;;9.15;40.94
46886;BME280;32622;48.202;11.326;2023-10-31T06:30:01;1006.35;;;9.16;40.77
46886;BME280;32622;48.202;11.326;2023-10-31T06:32:03;1006.39;;;9.32;40.24
46886;BME280;32622;48.202;11.326;2023-10-31T06:34:06;1006.52;;;8.91;41.07
46886;BME280;32622;48.202;11.326;2023-10-31T06:36:08;1006.63;;;8.58;40.51
46886;BME280;32622;48.202;11.326;2023-10-31T06:38:11;1006.65;;;8.77;40.56
46886;BME280;32622;48.202;11.326;2023-10-31T06:40:13;1006.53;;;9.29;40.49
46886;BME280;32622;48.202;11.326;2023-10-31T06:42:15;1006.77;;;8.36;41.18
46886;BME280;32622;48.202;11.326;2023-10-31T06:44:17;1006.73;;;8.57;41.07
46886;BME280;32622;48.202;11.326;2023-10-31T06:46:19;1006.76;;;8.51;41.49
46886;BME280;32622;48.202;11.326;2023-10-31T06:48:21;1006.78;;;8.22;41.35
46886;BME280;32622;48.202;11.326;2023-10-31T06:50:24;1006.71;;;8.60;41.18
46886;BME280;32622;48.202;11.326;2023-10-31T06:52:26;1006.70;;;8.64;40.63
46886;BME280;32622;48.202;11.326;2023-10-31T06:54:28;1006.75;;;8.69;40.82
46886;BME280;32622;48.202;11.326;2023-10-31T06:56:30;1006.81;;;8.65;40.82
46886;BME280;32622;48.202;11.326;2023-10-31T06:58:32;1006.80;;;8.83;40.55
46886;BME280;32622;48.202;11.326;2023-10-31T07:00:35;1006.82;;;9.09;40.50
46886;BME280;32622;48.202;11.326;2023-10-31T07:02:37;1006.85;;;8.94;40.86
46886;BME280;32622;48.202;11.326;2023-10-31T07:04:39;1006.93;;;8.68;40.83
46886;BME280;32622;48.202;11.326;2023-10-31T07:06:41;1007.13;;;7.93;41.36
46886;BME280;32622;48.202;11.326;2023-10-31T07:08:43;1007.05;;;8.41;41.21
46886;BME280;32622;48.202;11.326;2023-10-31T07:10:45;1007.31;;;7.62;42.98
46886;BME280;32622;48.202;11.326;2023-10-31T07:12:48;1007.21;;;7.93;42.37
46886;BME280;32622;48.202;11.326;2023-10-31T07:14:50;1007.36;;;7.55;42.81
46886;BME280;32622;48.202;11.326;2023-10-31T07:16:52;1007.35;;;7.82;42.52
46886;BME280;32622;48.202;11.326;2023-10-31T07:18:55;1007.23;;;8.75;41.53
46886;BME280;32622;48.202;11.326;2023-10-31T07:20:57;1007.41;;;7.80;41.69
46886;BME280;32622;48.202;11.326;2023-10-31T07:22:59;1007.37;;;7.89;41.63
46886;BME280;32622;48.202;11.326;2023-10-31T07:25:01;1007.36;;;8.20;40.68
46886;BME280;32622;48.202;11.326;2023-10-31T07:27:03;1007.27;;;8.45;40.82
46886;BME280;32622;48.202;11.326;2023-10-31T07:29:06;1007.23;;;8.44;40.41
46886;BME280;32622;48.202;11.326;2023-10-31T07:31:08;1007.23;;;8.15;40.96
46886;BME280;32622;48.202;11.326;2023-10-31T07:33:10;1007.06;;;8.80;40.65
46886;BME280;32622;48.202;11.326;2023-10-31T07:35:12;1007.15;;;8.47;40.17
46886;BME280;32622;48.202;11.326;2023-10-31T07:37:14;1007.04;;;8.52;39.96
46886;BME280;32622;48.202;11.326;2023-10-31T07:39:16;1006.98;;;8.60;39.90
46886;BME280;32622;48.202;11.326;2023-10-31T07:41:18;1006.96;;;8.83;39.53
46886;BME280;32622;48.202;11.326;2023-10-31T07:43:20;1007.07;;;8.40;40.51
46886;BME280;32622;48.202;11.326;2023-10-31T07:45:23;1007.05;;;8.74;39.99
46886;BME280;32622;48.202;11.326;2023-10-31T07:47:25;1007.15;;;8.21;40.94
46886;BME280;32622;48.202;11.326;2023-10-31T07:49:27;1007.20;;;8.46;40.37
46886;BME280;32622;48.202;11.326;2023-10-31T07:51:29;1007.11;;;8.84;40.24
46886;BME280;32622;48.202;11.326;2023-10-31T07:53:31;1007.09;;;8.78;39.55
46886;BME280;32622;48.202;11.326;2023-10-31T07:55:33;1007.12;;;8.96;39.40
46886;BME280;32622;48.202;11.326;2023-10-31T07:57:35;1007.04;;;9.44;39.36
46886;BME280;32622;48.202;11.326;2023-10-31T07:59:37;1007.22;;;8.79;38.92
46886;BME280;32622;48.202;11.326;2023-10-31T08:01:39;1007.29;;;8.64;38.92
46886;BME280;32622;48.202;11.326;2023-10-31T08:03:41;1007.19;;;9.00;39.05
46886;BME280;32622;48.202;11.326;2023-10-31T08:05:43;1007.34;;;8.28;39.21
46886;BME280;32622;48.202;11.326;2023-10-31T08:07:45;1007.33;;;7.99;40.24
46886;BME280;32622;48.202;11.326;2023-10-31T08:09:48;1007.19;;;8.47;40.34
46886;BME280;32622;48.202;11.326;2023-10-31T08:11:50;1007.17;;;8.28;40.18
46886;BME280;32622;48.202;11.326;2023-10-31T08:13:53;1007.09;;;8.48;39.45
46886;BME280;32622;48.202;11.326;2023-10-31T08:15:55;1007.13;;;8.01;40.43
46886;BME280;32622;48.202;11.326;2023-10-31T08:17:57;1007.21;;;7.71;40.78
46886;BME280;32622;48.202;11.326;2023-10-31T08:19:59;1007.25;;;7.73;40.66
46886;BME280;32622;48.202;11.326;2023-10-31T08:22:01;1007.22;;;8.15;40.67
46886;BME280;32622;48.202;11.326;2023-10-31T08:24:05;1007.25;;;8.33;40.08
46886;BME280;32622;48.202;11.326;2023-10-31T08:26:07;1007.28;;;8.49;40.18
46886;BME280;32622;48.202;11.326;2023-10-31T08:28:10;1007.41;;;7.90;40.56
46886;BME280;32622;48.202;11.326;2023-10-31T08:30:12;1007.23;;;8.91;39.58
46886;BME280;32622;48.202;11.326;2023-10-31T08:32:14;1007.32;;;8.61;39.57
46886;BME280;32622;48.202;11.326;2023-10-31T08:34:16;1007.47;;;8.31;39.72
46886;BME280;32622;48.202;11.326;2023-10-31T08:36:18;1007.53;;;8.38;39.98
46886;BME280;32622;48.202;11.326;2023-10-31T08:38:21;1007.57;;;8.30;40.22
46886;BME280;32622;48.202;11.326;2023-10-31T08:40:23;1007.72;;;8.28;39.60
46886;BME280;32622;48.202;11.326;2023-10-31T08:42:25;1007.84;;;8.42;40.05
46886;BME280;32622;48.202;11.326;2023-10-31T08:44:27;1007.97;;;8.58;39.70
46886;BME280;32622;48.202;11.326;2023-10-31T08:46:29;1008.16;;;8.47;39.31
46886;BME280;32622;48.202;11.326;2023-10-31T08:48:31;1008.25;;;8.90;38.80
46886;BME280;32622;48.202;11.326;2023-10-31T08:50:33;1008.38;;;8.50;39.70
46886;BME280;32622;48.202;11.326;2023-10-31T08:52:35;1008.50;;;8.42;39.39
46886;BME280;32622;48.202;11.326;2023-10-31T08:54:37;1008.71;;;7.59;41.49
46886;BME280;32622;48.202;11.326;2023-10-31T08:56:40;1008.47;;;8.51;39.86
46886;BME280;32622;48.202;11.326;2023-10-31T08:58:42;1008.48;;;8.57;39.87
46886;BME280;32622;48.202;11.326;2023-10-31T09:00:44;1008.51;;;8.23;38.96
46886;BME280;32622;48.202;11.326;2023-10-31T09:02:46;1008.44;;;8.68;39.68
46886;BME280;32622;48.202;11.326;2023-10-31T09:04:48;1008.37;;;9.12;38.44
46886;BME280;32622;48.202;11.326;2023-10-31T09:06:50;1008.32;;;9.27;38.46
46886;BME280;32622;48.202;11.326;2023-10-31T09:08:53;1008.32;;;9.46;38.09
46886;BME280;32622;48.202;11.326;2023-10-31T09:10:55;1008.43;;;9.20;38.16
46886;BME280;32622;48.202;11.326;2023-10-31T09:12:57;1008.49;;;8.85;39.21
46886;BME280;32622;48.202;11.326;2023-10-31T09:14:59;1008.48;;;9.15;38.51
46886;BME280;32622;48.202;11.326;2023-10-31T09:17:01;1008.63;;;8.39;39.11
46886;BME280;32622;48.202;11.326;2023-10-31T09:19:03;1008.60;;;8.77;38.47
46886;BME280;32622;48.202;11.326;2023-10-31T09:21:06;1008.40;;;9.71;38.21
46886;BME280;32622;48.202;11.326;2023-10-31T09:23:08;1008.49;;;9.28;38.03
46886;BME280;32622;48.202;11.326;2023-10-31T09:25:10;1008.57;;;8.95;38.40
46886;BME280;32622;48.202;11.326;2023-10-31T09:27:12;1008.79;;;7.98;39.87
46886;BME280;32622;48.202;11.326;2023-10-31T09:29:14;1008.63;;;8.58;39.32
46886;BME280;32622;48.202;11.326;2023-10-31T09:31:17;1008.64;;;8.77;39.50
46886;BME280;32622;48.202;11.326;2023-10-31T09:33:19;1008.56;;;9.28;38.66
46886;BME280;32622;48.202;11.326;2023-10-31T09:35:21;1008.78;;;8.39;39.65
46886;BME280;32622;48.202;11.326;2023-10-31T09:37:23;1008.65;;;9.08;38.77
46886;BME280;32622;48.202;11.326;2023-10-31T09:39:25;1008.64;;;9.19;38.21
46886;BME280;32622;48.202;11.326;2023-10-31T09:41:27;1008.52;;;9.82;37.32
46886;BME280;32622;48.202;11.326;2023-10-31T09:43:29;1008.60;;;9.45;37.72
46886;BME280;32622;48.202;11.326;2023-10-31T09:45:32;1008.58;;;9.48;37.42
46886;BME280;32622;48.202;11.326;2023-10-31T09:47:34;1008.75;;;9.04;38.38
46886;BME280;32622;48.202;11.326;2023-10-31T09:49:36;1008.69;;;9.30;37.83
46886;BME280;32622;48.202;11.326;2023-10-31T09:51:39;1008.74;;;9.24;37.85
46886;BME280;32622;48.202;11.326;2023-10-31T09:53:43;1008.68;;;9.73;37.62
46886;BME280;32622;48.202;11.326;2023-10-31T09:55:46;1008.88;;;8.77;38.13
46886;BME280;32622;48.202;11.326;2023-10-31T09:57:49;1008.69;;;9.63;37.73
46886;BME280;32622;48.202;11.326;2023-10-31T09:59:51;1008.54;;;10.04;37.09
46886;BME280;32622;48.202;11.326;2023-10-31T10:01:53;1008.47;;;10.09;36.73
46886;BME280;32622;48.202;11.326;2023-10-31T10:03:56;1008.37;;;10.35;36.58
46886;BME280;32622;48.202;11.326;2023-10-31T10:05:58;1008.48;;;9.80;37.25
46886;BME280;32622;48.202;11.326;2023-10-31T10:08:00;1008.37;;;10.07;36.91
46886;BME280;32622;48.202;11.326;2023-10-31T10:10:02;1008.51;;;9.44;37.07
46886;BME280;32622;48.202;11.326;2023-10-31T10:12:06;1008.52;;;9.47;37.31
46886;BME280;32622;48.202;11.326;2023-10-31T10:14:08;1008.53;;;9.58;37.84
46886;BME280;32622;48.202;11.326;2023-10-31T10:16:10;1008.62;;;9.51;37.04
46886;BME280;32622;48.202;11.326;2023-10-31T10:18:25;1008.66;;;9.46;36.94
46886;BME280;32622;48.202;11.326;2023-10-31T10:20:27;1008.57;;;10.23;36.76
46886;BME280;32622;48.202;11.326;2023-10-31T10:22:29;1008.64;;;10.07;35.78
46886;BME280;32622;48.202;11.326;2023-10-31T10:24:31;1008.66;;;10.16;35.99
46886;BME280;32622;48.202;11.326;2023-10-31T10:26:33;1008.76;;;9.84;36.30
46886;BME280;32622;48.202;11.326;2023-10-31T10:28:36;1008.81;;;9.53;36.94
46886;BME280;32622;48.202;11.326;2023-10-31T10:30:38;1008.67;;;10.02;36.88
46886;BME280;32622;48.202;11.326;2023-10-31T10:32:40;1008.80;;;9.32;37.13
46886;BME280;32622;48.202;11.326;2023-10-31T10:34:42;1008.75;;;10.01;36.98
46886;BME280;32622;48.202;11.326;2023-10-31T10:36:47;1008.82;;;9.81;36.27
46886;BME280;32622;48.202;11.326;2023-10-31T10:38:51;1008.84;;;9.82;36.06
46886;BME280;32622;48.202;11.326;2023-10-31T10:40:58;1008.89;;;9.61;37.00
46886;BME280;32622;48.202;11.326;2023-10-31T10:43:06;1008.91;;;9.67;36.58
46886;BME280;32622;48.202;11.326;2023-10-31T10:45:13;1008.80;;;10.08;36.68
46886;BME280;32622;48.202;11.326;2023-10-31T10:47:17;1008.68;;;10.33;35.62
46886;BME280;32622;48.202;11.326;2023-10-31T10:49:24;1008.62;;;10.41;35.41
46886;BME280;32622;48.202;11.326;2023-10-31T10:51:29;1008.79;;;9.95;35.93
46886;BME280;32622;48.202;11.326;2023-10-31T10:53:42;1008.58;;;10.65;35.93
46886;BME280;32622;48.202;11.326;2023-10-31T10:55:49;1008.84;;;9.87;36.81